Dallas, TX (75234)

11:05 AM CDT on September 04, 2015 (GMT -0500)
OakBrook Parkway | | Change Station
CLOSE
Current Station
Personal Weather Station
Location: Farmers Branch, TX
Elevation: 482 ft
Nearby Weather Stations

Elev 482 ft 32.93 °N, 96.90 °W | Updated 8 minutes ago

Partly Cloudy
Partly Cloudy
90.0 °F
Feels Like 101 °F
N
2.7
Wind Variable Wind from ESE

Today
High -- | Low -- °F
--% Chance of Precip.
Yesterday
High -- | Low -- °F
Precip. -- in
7:03 AM 7:48 PM
Waning Gibbous, 58% visible
Pressure 30.00 in
Visibility 12.0 miles
Clouds Scattered Clouds 3200 ft
Heat Index 101 °F
Dew Point 76 °F
Humidity 63%
Rainfall 0.02 in
Snow Depth Not available.
UV 5 out of 12
Pollen 10.20 out of 12
Air Quality Not available.
Flu Activity Not available.
METAR KADS 041547Z 21004KT 12SM SCT032 30/21 A3000
Pressure 30.00 in
Visibility 12.0 miles
Clouds Scattered Clouds 3200 ft
Heat Index 101 °F
Dew Point 76 °F
Humidity 63%
Rainfall 0.02 in
Snow Depth Not available.
UV 5 out of 12
Pollen 10.20 out of 12
Air Quality Not available.
Flu Activity Not available.
METAR KADS 041547Z 21004KT 12SM SCT032 30/21 A3000

10-Day Weather Forecast

×

Almanac

Astronomy

Sep. 04, 2015 Rise Set
Actual Time
Civil Twilight
Nautical Twilight
Astronomical Twilight
Moon
Length of Visible Light
Length of Day
Tomorrow will be .
, % of the Moon is Illuminated

Today's Extremes

State Highs State Lows

Community

WunderPhotos

Upload Photos

1,852,210 photos uploaded!

WunderBlogs® & News

Nearby

Air Quality

  Air Quality AQ Index Pollutant
Not available.

Snow Depth

Station Depth Elevation

Earthquake Activity

City Distance Mag. Time & Date
Minimum magnitude displayed is 2.5.

Coastal Water Temperatures

Place Temperature

Stations

Nearby Weather Stations

Station Location Temp. Windchill Dew Point Humidity Wind Precip. Elev Updated Type